createdAt,value
2019-05-22T00:01:45.231Z,97.90
2019-05-22T00:04:24.054Z,98.10
2019-05-22T00:06:56.261Z,98.10
2019-05-22T00:09:37.641Z,98.60
2019-05-22T00:12:10.969Z,99.30
2019-05-22T00:14:40.493Z,99.60
2019-05-22T00:17:14.869Z,99.90
2019-05-22T00:19:44.134Z,99.70
2019-05-22T00:22:23.431Z,99.50
2019-05-22T00:24:54.329Z,99.10
2019-05-22T00:27:25.489Z,98.60
2019-05-22T00:29:55.993Z,98.60
2019-05-22T00:32:25.018Z,98.30
2019-05-22T00:35:13.957Z,98.20
2019-05-22T00:38:04.966Z,98.20
2019-05-22T00:40:53.148Z,98.40
2019-05-22T00:43:29.614Z,99.20
2019-05-22T00:45:58.099Z,99.70
2019-05-22T00:48:28.344Z,99.90
2019-05-22T00:51:09.402Z,99.90
2019-05-22T00:53:48.789Z,99.90
2019-05-22T00:56:33.040Z,99.90
2019-05-22T00:59:08.113Z,99.90
2019-05-22T01:01:44.764Z,99.90
2019-05-22T01:04:16.174Z,99.90
2019-05-22T01:06:48.164Z,99.90
2019-05-22T01:09:24.817Z,99.90
2019-05-22T01:11:55.179Z,99.90
2019-05-22T01:14:25.257Z,99.80
2019-05-22T01:16:56.222Z,99.90
2019-05-22T01:19:24.596Z,99.80
2019-05-22T01:21:54.931Z,99.90
2019-05-22T01:24:24.591Z,99.90
2019-05-22T01:26:54.376Z,99.90
2019-05-22T01:29:24.829Z,99.90
2019-05-22T01:31:59.696Z,99.90
2019-05-22T01:34:30.534Z,99.90
2019-05-22T01:37:07.034Z,99.90
2019-05-22T01:39:55.274Z,99.90
2019-05-22T01:42:33.356Z,99.90
2019-05-22T01:45:06.797Z,99.90
2019-05-22T01:47:52.851Z,99.90
2019-05-22T01:50:47.115Z,99.90
2019-05-22T01:53:20.093Z,99.90
2019-05-22T01:55:55.400Z,99.90
2019-05-22T01:58:24.114Z,99.90
2019-05-22T02:00:54.809Z,99.90
2019-05-22T02:03:24.774Z,99.90
2019-05-22T02:05:54.494Z,99.90
2019-05-22T02:08:24.874Z,99.90
2019-05-22T02:10:57.318Z,99.90
2019-05-22T02:13:35.133Z,99.90
2019-05-22T02:16:05.467Z,99.90
2019-05-22T02:18:35.753Z,99.90
2019-05-22T02:21:04.115Z,99.90
2019-05-22T02:23:33.310Z,99.90
2019-05-22T02:26:04.304Z,99.90
2019-05-22T02:28:33.234Z,99.90
2019-05-22T02:31:01.578Z,99.90
2019-05-22T02:33:31.751Z,99.90
2019-05-22T02:36:00.780Z,99.90
2019-05-22T02:38:31.028Z,99.90
2019-05-22T02:41:00.691Z,99.90
2019-05-22T02:43:30.330Z,99.90
2019-05-22T02:45:59.604Z,99.90
2019-05-22T02:48:29.328Z,99.90
2019-05-22T02:50:59.278Z,99.90
2019-05-22T02:53:29.116Z,99.90
2019-05-22T02:55:57.965Z,99.90
2019-05-22T02:58:28.111Z,99.90
2019-05-22T03:01:00.895Z,99.90
2019-05-22T03:03:31.676Z,99.90
2019-05-22T03:06:05.149Z,99.90
2019-05-22T03:09:15.620Z,99.90
2019-05-22T03:12:00.727Z,99.90
2019-05-22T03:14:30.297Z,99.90
2019-05-22T03:17:04.377Z,99.90
2019-05-22T03:23:43.431Z,99.90
2019-05-22T03:26:12.714Z,99.90
2019-05-22T03:28:43.268Z,99.90
2019-05-22T03:31:12.823Z,99.90
2019-05-22T03:33:41.782Z,99.90
2019-05-22T03:36:15.032Z,99.90
2019-05-22T03:38:44.862Z,99.90
2019-05-22T03:41:14.968Z,99.90
2019-05-22T03:43:47.823Z,99.90
2019-05-22T03:46:43.232Z,99.90
2019-05-22T03:49:28.893Z,99.90
2019-05-22T03:51:50.278Z,99.90
2019-05-22T03:54:21.312Z,99.90
2019-05-22T03:56:50.166Z,99.90
2019-05-22T03:59:20.790Z,99.90
2019-05-22T04:01:48.997Z,99.90
2019-05-22T04:04:36.178Z,99.90
2019-05-22T04:07:07.853Z,99.90
2019-05-22T04:09:39.686Z,99.90
2019-05-22T04:12:09.994Z,99.90
2019-05-22T04:14:39.581Z,99.90
2019-05-22T04:17:10.233Z,99.90
2019-05-22T04:19:49.379Z,99.90
2019-05-22T04:22:12.564Z,99.90
2019-05-22T04:24:41.617Z,99.90
2019-05-22T04:27:11.312Z,99.90
2019-05-22T04:29:40.677Z,99.90
2019-05-22T04:32:16.896Z,99.90
2019-05-22T04:34:46.981Z,99.90
2019-05-22T04:37:15.699Z,99.90
2019-05-22T04:39:48.018Z,99.90
2019-05-22T04:42:18.672Z,99.90
2019-05-22T04:45:21.010Z,99.90
2019-05-22T04:47:57.859Z,99.90
2019-05-22T04:50:27.064Z,99.90
2019-05-22T04:52:56.424Z,99.90
2019-05-22T04:55:26.538Z,99.90
2019-05-22T04:58:00.520Z,99.90
2019-05-22T05:00:29.570Z,99.90
2019-05-22T05:02:58.679Z,99.90
2019-05-22T05:05:31.557Z,99.90
2019-05-22T05:08:01.448Z,99.90
2019-05-22T05:10:30.215Z,99.90
2019-05-22T05:12:59.053Z,99.90
2019-05-22T05:15:27.385Z,99.90
2019-05-22T05:17:56.957Z,99.90
2019-05-22T05:20:25.492Z,99.90
2019-05-22T05:24:14.676Z,99.90
2019-05-22T05:26:44.261Z,99.90
2019-05-22T05:29:27.977Z,99.90
2019-05-22T05:31:58.464Z,99.90
2019-05-22T05:34:55.557Z,99.90
2019-05-22T05:37:25.774Z,99.30
2019-05-22T05:40:48.742Z,98.70
2019-05-22T05:43:18.823Z,98.70
2019-05-22T05:45:49.140Z,99.10
2019-05-22T05:48:23.280Z,98.60
2019-05-22T05:51:39.763Z,98.50
2019-05-22T05:54:13.789Z,97.70
2019-05-22T05:56:47.843Z,96.60
2019-05-22T05:59:18.346Z,96.00
2019-05-22T06:01:55.231Z,95.70
2019-05-22T06:04:36.000Z,94.30
2019-05-22T06:07:21.269Z,94.30
2019-05-22T06:10:48.069Z,93.90
2019-05-22T06:13:17.267Z,93.80
2019-05-22T06:16:53.466Z,92.80
2019-05-22T06:19:23.259Z,93.40
2019-05-22T06:21:51.945Z,92.50
2019-05-22T06:24:27.309Z,91.60
2019-05-22T06:27:19.479Z,92.10
2019-05-22T06:30:12.722Z,92.60
2019-05-22T06:33:42.502Z,92.60
2019-05-22T06:36:14.173Z,92.10
2019-05-22T06:39:14.767Z,90.50
2019-05-22T06:41:44.814Z,90.50
2019-05-22T06:44:33.209Z,90.20
2019-05-22T06:47:02.545Z,90.40
2019-05-22T06:49:57.901Z,89.60
2019-05-22T06:52:26.861Z,89.50
2019-05-22T06:54:56.567Z,86.10
2019-05-22T06:57:29.021Z,85.20
2019-05-22T07:00:13.251Z,80.90
2019-05-22T07:02:36.250Z,80.60
2019-05-22T07:05:06.416Z,79.50
2019-05-22T07:07:34.912Z,77.20
2019-05-22T07:10:06.196Z,81.00
2019-05-22T07:12:35.316Z,80.40
2019-05-22T07:15:47.206Z,82.10
2019-05-22T07:18:19.520Z,79.60
2019-05-22T07:20:49.345Z,78.80
2019-05-22T07:23:32.396Z,74.40
2019-05-22T07:26:03.013Z,75.80
2019-05-22T07:28:32.684Z,74.10
2019-05-22T07:31:02.201Z,73.70
2019-05-22T07:33:31.681Z,71.50
2019-05-22T07:36:17.084Z,75.00
2019-05-22T07:38:32.637Z,70.70
2019-05-22T07:41:01.639Z,68.20
2019-05-22T07:43:30.314Z,71.40
2019-05-22T07:45:59.067Z,71.60
2019-05-22T07:48:29.501Z,73.30
2019-05-22T07:50:58.447Z,69.70
2019-05-22T07:53:28.515Z,65.20
2019-05-22T07:56:00.129Z,67.20
2019-05-22T07:58:30.562Z,69.30
2019-05-22T08:01:01.603Z,68.30
2019-05-22T08:03:31.953Z,69.00
2019-05-22T08:06:00.900Z,72.70
2019-05-22T08:08:32.544Z,66.10
2019-05-22T08:11:01.362Z,64.90
2019-05-22T08:13:31.687Z,59.00
2019-05-22T08:16:00.291Z,59.70
2019-05-22T08:18:33.475Z,61.50
2019-05-22T08:21:02.204Z,59.20
2019-05-22T08:23:30.882Z,63.40
2019-05-22T08:25:59.801Z,63.10
2019-05-22T08:28:31.707Z,64.70
2019-05-22T08:31:01.777Z,61.40
2019-05-22T08:33:31.961Z,57.70
2019-05-22T08:36:01.567Z,60.90
2019-05-22T08:38:32.577Z,61.90
2019-05-22T08:41:07.893Z,59.30
2019-05-22T08:44:03.412Z,61.10
2019-05-22T08:46:10.905Z,60.40
2019-05-22T08:48:47.810Z,61.20
2019-05-22T08:51:13.879Z,60.40
2019-05-22T08:53:47.656Z,56.90
2019-05-22T08:56:14.327Z,53.70
2019-05-22T08:58:45.637Z,61.10
2019-05-22T09:01:14.489Z,58.60
2019-05-22T09:03:44.115Z,59.40
2019-05-22T09:06:12.741Z,59.70
2019-05-22T09:08:41.419Z,58.40
2019-05-22T09:11:10.626Z,58.80
2019-05-22T09:13:39.179Z,59.20
2019-05-22T09:16:09.358Z,58.50
2019-05-22T09:18:38.099Z,59.10
2019-05-22T09:21:07.262Z,61.10
2019-05-22T09:23:37.187Z,59.70
2019-05-22T09:26:06.526Z,58.00
2019-05-22T09:28:36.909Z,59.80
2019-05-22T09:31:05.688Z,57.70
2019-05-22T09:33:36.132Z,58.20
2019-05-22T09:36:05.119Z,55.30
2019-05-22T09:38:33.480Z,56.50
2019-05-22T09:41:02.132Z,52.00
2019-05-22T09:43:31.029Z,53.40
2019-05-22T09:46:00.125Z,56.60
2019-05-22T09:48:28.643Z,58.20
2019-05-22T09:50:57.906Z,59.80
2019-05-22T09:53:27.936Z,58.00
2019-05-22T09:55:56.794Z,58.20
2019-05-22T09:58:25.445Z,58.00
2019-05-22T10:00:53.817Z,60.70
2019-05-22T10:03:22.884Z,62.10
2019-05-22T10:06:04.038Z,58.20
2019-05-22T10:08:33.795Z,56.70
2019-05-22T10:11:02.144Z,52.90
2019-05-22T10:13:31.599Z,52.60
2019-05-22T10:16:00.984Z,51.80
2019-05-22T10:18:29.377Z,54.00
2019-05-22T10:20:59.069Z,52.10
2019-05-22T10:23:30.029Z,52.40
2019-05-22T10:25:58.839Z,50.30
2019-05-22T10:28:27.363Z,51.70
2019-05-22T10:30:57.367Z,54.10
2019-05-22T10:33:26.794Z,51.80
2019-05-22T10:35:55.816Z,53.50
2019-05-22T10:38:24.784Z,53.90
2019-05-22T10:40:53.113Z,54.30
2019-05-22T10:43:22.006Z,52.70
2019-05-22T10:45:50.607Z,50.20
2019-05-22T10:48:19.357Z,51.80
2019-05-22T10:50:49.044Z,51.70
2019-05-22T10:53:32.333Z,56.70
2019-05-22T10:55:48.823Z,56.00
2019-05-22T10:58:17.368Z,55.50
2019-05-22T11:00:45.971Z,53.90
2019-05-22T11:03:17.001Z,55.00
2019-05-22T11:05:46.279Z,54.10
2019-05-22T11:08:14.959Z,55.50
2019-05-22T11:10:45.509Z,55.10
2019-05-22T11:13:14.610Z,52.10
2019-05-22T11:15:43.515Z,52.20
2019-05-22T11:18:12.567Z,51.60
2019-05-22T11:20:41.870Z,51.20
2019-05-22T11:23:11.011Z,49.30
2019-05-22T11:25:40.357Z,45.20
2019-05-22T11:28:09.724Z,44.80
2019-05-22T11:30:38.662Z,44.30
2019-05-22T11:33:08.283Z,46.70
2019-05-22T11:35:37.162Z,45.10
2019-05-22T11:38:05.466Z,42.60
2019-05-22T11:40:34.299Z,38.60
2019-05-22T11:43:03.626Z,41.80
2019-05-22T11:45:32.247Z,39.30
2019-05-22T11:48:00.969Z,37.90
2019-05-22T11:50:30.690Z,38.80
2019-05-22T11:52:59.214Z,39.80
2019-05-22T11:55:42.634Z,37.20
2019-05-22T11:57:58.605Z,42.10
2019-05-22T12:00:27.218Z,41.10
2019-05-22T12:02:55.844Z,41.60
2019-05-22T12:05:24.981Z,45.10
2019-05-22T12:07:53.862Z,42.60
2019-05-22T12:10:23.628Z,41.30
2019-05-22T12:12:54.600Z,41.40
2019-05-22T12:15:28.847Z,40.50
2019-05-22T12:17:58.324Z,37.80
2019-05-22T12:20:28.577Z,37.70
2019-05-22T12:22:58.620Z,37.20
2019-05-22T12:25:28.139Z,37.40
2019-05-22T12:27:57.439Z,37.10
2019-05-22T12:30:28.529Z,35.90
2019-05-22T12:32:58.768Z,32.80
2019-05-22T12:35:27.835Z,34.60
2019-05-22T12:37:58.899Z,32.10
2019-05-22T12:40:33.222Z,33.80
2019-05-22T12:43:03.511Z,35.30
2019-05-22T12:45:33.833Z,37.30
2019-05-22T12:48:03.707Z,35.10
2019-05-22T12:50:33.226Z,31.60
2019-05-22T12:53:07.435Z,31.10
2019-05-22T12:55:36.576Z,31.30
2019-05-22T12:58:06.955Z,31.20
2019-05-22T13:00:35.813Z,29.70
2019-05-22T13:03:06.339Z,31.00
2019-05-22T13:05:37.139Z,33.80
2019-05-22T13:08:07.192Z,31.90
2019-05-22T13:10:37.563Z,32.40
2019-05-22T13:13:06.409Z,32.40
2019-05-22T13:15:38.200Z,36.30
2019-05-22T13:18:09.464Z,39.00
2019-05-22T13:20:44.365Z,45.50
2019-05-22T13:23:14.259Z,50.30
2019-05-22T13:25:49.077Z,52.20
2019-05-22T13:28:19.164Z,54.00
2019-05-22T13:30:54.484Z,54.60
2019-05-22T13:33:27.132Z,55.40
2019-05-22T13:35:56.037Z,55.40
2019-05-22T13:38:25.804Z,54.90
2019-05-22T13:40:55.647Z,54.80
2019-05-22T13:43:26.396Z,54.10
2019-05-22T13:45:55.346Z,54.80
2019-05-22T13:48:24.444Z,54.60
2019-05-22T13:50:54.079Z,53.20
2019-05-22T13:53:22.890Z,53.00
2019-05-22T13:55:51.903Z,53.70
2019-05-22T13:58:21.991Z,55.10
2019-05-22T14:00:51.024Z,55.60
2019-05-22T14:03:21.881Z,55.40
2019-05-22T14:05:50.811Z,56.00
2019-05-22T14:08:20.162Z,52.20
2019-05-22T14:10:50.336Z,52.80
2019-05-22T14:13:21.485Z,54.00
2019-05-22T14:15:56.166Z,54.00
2019-05-22T14:18:20.769Z,55.80
2019-05-22T14:20:49.640Z,56.70
2019-05-22T14:23:19.205Z,59.20
2019-05-22T14:25:50.212Z,57.70
2019-05-22T14:28:19.972Z,59.20
2019-05-22T14:30:49.181Z,60.30
2019-05-22T14:33:18.400Z,58.30
2019-05-22T14:35:50.427Z,54.80
2019-05-22T14:38:19.200Z,54.40
2019-05-22T14:40:47.693Z,55.90
2019-05-22T14:43:16.472Z,55.60
2019-05-22T14:45:46.082Z,52.10
2019-05-22T14:48:14.908Z,51.10
2019-05-22T14:50:44.043Z,51.60
2019-05-22T14:53:13.940Z,46.80
2019-05-22T14:55:44.123Z,43.70
2019-05-22T14:58:14.289Z,42.10
2019-05-22T15:00:43.842Z,40.90
2019-05-22T15:03:12.405Z,41.10
2019-05-22T15:05:41.012Z,42.60
2019-05-22T15:08:10.146Z,43.50
2019-05-22T15:10:39.608Z,48.00
2019-05-22T15:13:09.605Z,52.40
2019-05-22T15:15:41.044Z,52.60
2019-05-22T15:18:10.732Z,52.20
2019-05-22T15:20:46.314Z,52.50
2019-05-22T15:23:14.980Z,54.60
2019-05-22T15:25:44.247Z,55.90
2019-05-22T15:28:13.006Z,53.60
2019-05-22T15:30:42.270Z,52.90
2019-05-22T15:33:11.721Z,52.50
2019-05-22T15:35:41.424Z,51.90
2019-05-22T15:38:11.942Z,52.10
2019-05-22T15:40:40.489Z,47.80
2019-05-22T15:43:10.115Z,47.70
2019-05-22T15:45:41.357Z,48.50
2019-05-22T15:48:17.477Z,48.30
2019-05-22T15:50:47.442Z,49.40
2019-05-22T15:53:20.330Z,48.20
2019-05-22T15:55:52.639Z,48.10
2019-05-22T15:58:23.124Z,49.90
2019-05-22T16:00:54.483Z,51.90
2019-05-22T16:03:27.626Z,53.20
2019-05-22T16:05:58.552Z,53.00
2019-05-22T16:08:29.586Z,54.10
2019-05-22T16:11:00.645Z,59.10
2019-05-22T16:13:34.519Z,58.90
2019-05-22T16:16:05.817Z,59.50
2019-05-22T16:18:36.681Z,60.00
2019-05-22T16:21:12.053Z,61.50
2019-05-22T16:23:42.911Z,63.10
2019-05-22T16:26:14.163Z,63.70
2019-05-22T16:28:46.248Z,65.10
2019-05-22T16:31:17.569Z,64.30
2019-05-22T16:33:48.252Z,65.40
2019-05-22T16:36:19.445Z,66.40
2019-05-22T16:38:50.500Z,67.20
2019-05-22T16:41:21.922Z,61.30
2019-05-22T16:43:52.061Z,62.00
2019-05-22T16:46:23.557Z,64.30
2019-05-22T16:48:53.090Z,66.20
2019-05-22T16:51:24.954Z,62.50
2019-05-22T16:53:56.668Z,63.60
2019-05-22T16:56:27.045Z,64.40
2019-05-22T16:58:56.059Z,65.90
2019-05-22T17:01:26.642Z,63.30
2019-05-22T17:04:00.762Z,63.90
2019-05-22T17:06:29.532Z,61.50
2019-05-22T17:09:00.835Z,60.90
2019-05-22T17:11:31.531Z,64.40
2019-05-22T17:14:04.058Z,64.60
2019-05-22T17:16:36.512Z,65.20
2019-05-22T17:19:23.699Z,66.60
2019-05-22T17:21:37.314Z,66.70
2019-05-22T17:24:09.207Z,66.60
2019-05-22T17:26:38.486Z,64.30
2019-05-22T17:29:15.250Z,63.20
2019-05-22T17:31:43.932Z,65.50
2019-05-22T17:34:31.977Z,69.30
2019-05-22T17:37:05.711Z,71.10
2019-05-22T17:39:36.442Z,75.10
2019-05-22T17:42:09.223Z,75.80
2019-05-22T17:44:42.545Z,74.80
2019-05-22T17:47:13.021Z,75.30
2019-05-22T17:49:42.041Z,72.30
2019-05-22T17:52:12.238Z,73.30
2019-05-22T17:54:43.019Z,74.60
2019-05-22T17:57:14.783Z,75.90
2019-05-22T17:59:44.812Z,77.90
2019-05-22T18:02:15.219Z,79.10
2019-05-22T18:04:44.678Z,80.70
2019-05-22T18:07:15.934Z,80.40
2019-05-22T18:10:03.073Z,79.30
2019-05-22T18:12:31.651Z,78.50
2019-05-22T18:15:00.441Z,79.30
2019-05-22T18:17:29.069Z,77.10
2019-05-22T18:19:58.127Z,76.60
2019-05-22T18:22:26.505Z,74.70
2019-05-22T18:24:55.256Z,72.90
2019-05-22T18:27:25.383Z,71.70
2019-05-22T18:29:54.425Z,69.60
2019-05-22T18:32:23.322Z,70.00
2019-05-22T18:34:51.629Z,70.60
2019-05-22T18:37:22.634Z,70.30
2019-05-22T18:39:51.062Z,70.20
2019-05-22T18:42:22.000Z,69.30
2019-05-22T18:44:50.606Z,66.50
2019-05-22T18:47:20.746Z,64.50
2019-05-22T18:49:49.677Z,63.30
2019-05-22T18:52:18.704Z,61.80
2019-05-22T18:54:47.274Z,62.60
2019-05-22T18:57:16.892Z,63.80
2019-05-22T18:59:45.744Z,65.50
2019-05-22T19:02:16.937Z,67.00
2019-05-22T19:04:47.735Z,68.90
2019-05-22T19:07:16.334Z,71.80
2019-05-22T19:09:47.335Z,73.50
2019-05-22T19:12:17.962Z,75.80
2019-05-22T19:14:46.734Z,78.10
2019-05-22T19:17:18.283Z,79.50
2019-05-22T19:19:50.012Z,80.80
2019-05-22T19:22:39.180Z,82.60
2019-05-22T19:25:11.039Z,83.30
2019-05-22T19:27:41.834Z,83.60
2019-05-22T19:30:11.320Z,83.10
2019-05-22T19:32:40.102Z,83.10
2019-05-22T19:35:12.027Z,83.80
2019-05-22T19:37:40.855Z,85.00
2019-05-22T19:40:11.934Z,86.70
2019-05-22T19:42:41.035Z,86.70
2019-05-22T19:45:12.206Z,87.20
2019-05-22T19:47:49.946Z,88.00
2019-05-22T19:50:23.144Z,88.60
2019-05-22T19:52:55.279Z,89.80
2019-05-22T19:55:27.069Z,90.20
2019-05-22T19:57:55.854Z,90.60
2019-05-22T20:00:27.409Z,90.80
2019-05-22T20:02:57.624Z,90.50
2019-05-22T20:05:26.669Z,91.30
2019-05-22T20:07:56.190Z,91.00
2019-05-22T20:10:25.246Z,91.40
2019-05-22T20:12:55.818Z,91.10
2019-05-22T20:15:24.423Z,91.20
2019-05-22T20:18:12.792Z,92.00
2019-05-22T20:20:44.412Z,92.50
2019-05-22T20:23:13.659Z,92.40
2019-05-22T20:25:43.088Z,92.50
2019-05-22T20:28:11.969Z,92.90
2019-05-22T20:30:41.966Z,93.10
2019-05-22T20:33:11.180Z,93.90
2019-05-22T20:35:40.706Z,93.70
2019-05-22T20:38:11.683Z,92.90
2019-05-22T20:40:43.502Z,92.80
2019-05-22T20:43:12.934Z,93.50
2019-05-22T20:45:45.128Z,94.00
2019-05-22T20:48:29.817Z,94.80
2019-05-22T20:51:00.801Z,94.90
2019-05-22T20:53:32.338Z,95.90
2019-05-22T20:56:01.300Z,96.30
2019-05-22T20:58:33.412Z,96.90
2019-05-22T21:01:04.596Z,97.40
2019-05-22T21:03:33.567Z,98.30
2019-05-22T21:06:06.485Z,98.60
2019-05-22T21:08:37.833Z,99.00
2019-05-22T21:11:09.229Z,99.30
2019-05-22T21:13:39.784Z,99.60
2019-05-22T21:16:08.772Z,99.70
2019-05-22T21:18:41.878Z,99.80
2019-05-22T21:21:11.683Z,99.80
2019-05-22T21:23:41.411Z,99.50
2019-05-22T21:26:11.254Z,99.20
2019-05-22T21:28:41.060Z,99.00
2019-05-22T21:31:09.915Z,98.80
2019-05-22T21:33:39.023Z,98.90
2019-05-22T21:36:10.362Z,98.40
2019-05-22T21:38:40.541Z,98.30
2019-05-22T21:41:09.524Z,98.20
2019-05-22T21:43:38.764Z,98.10
2019-05-22T21:46:08.702Z,97.90
2019-05-22T21:48:38.849Z,98.20
2019-05-22T21:51:08.254Z,98.20
2019-05-22T21:53:37.342Z,98.20
2019-05-22T21:56:06.361Z,98.20
2019-05-22T21:58:36.629Z,98.50
2019-05-22T22:01:23.789Z,98.70
2019-05-22T22:03:58.476Z,98.80
2019-05-22T22:06:27.806Z,99.00
2019-05-22T22:08:58.544Z,99.10
2019-05-22T22:11:29.579Z,99.40
2019-05-22T22:13:58.883Z,99.70
2019-05-22T22:16:28.729Z,99.80
2019-05-22T22:18:57.482Z,99.80
2019-05-22T22:21:26.417Z,99.90
2019-05-22T22:23:54.909Z,99.90
2019-05-22T22:26:25.955Z,99.90
2019-05-22T22:28:55.517Z,99.90
2019-05-22T22:31:26.570Z,99.90
2019-05-22T22:34:06.683Z,99.90
2019-05-22T22:36:36.434Z,99.90
2019-05-22T22:39:10.732Z,99.90
2019-05-22T22:41:43.279Z,99.90
2019-05-22T22:44:12.871Z,99.90
2019-05-22T22:46:54.455Z,99.90
2019-05-22T22:49:27.071Z,99.90
2019-05-22T22:51:57.070Z,99.90
2019-05-22T22:54:27.437Z,99.90
2019-05-22T22:56:56.856Z,99.90
2019-05-22T22:59:26.447Z,99.90
2019-05-22T23:02:00.662Z,99.90
2019-05-22T23:04:30.264Z,99.90
2019-05-22T23:07:07.114Z,99.90
2019-05-22T23:09:39.761Z,99.90
2019-05-22T23:12:09.315Z,99.90
2019-05-22T23:14:44.865Z,99.90
2019-05-22T23:17:14.019Z,99.90
2019-05-22T23:19:45.251Z,99.90
2019-05-22T23:22:21.306Z,99.90
2019-05-22T23:24:53.158Z,99.90
2019-05-22T23:27:23.171Z,99.90
2019-05-22T23:29:51.624Z,99.90
2019-05-22T23:32:22.224Z,99.90
2019-05-22T23:34:51.674Z,99.90
2019-05-22T23:37:21.716Z,99.90
2019-05-22T23:39:53.124Z,99.90
2019-05-22T23:42:30.744Z,99.90
2019-05-22T23:45:06.216Z,99.90
2019-05-22T23:47:50.396Z,99.90
2019-05-22T23:50:20.199Z,99.90
2019-05-22T23:52:48.983Z,99.90
2019-05-22T23:55:18.177Z,99.90
2019-05-22T23:57:49.545Z,99.90
